createdAt,value
2022-07-29T00:02:10.849Z,48.85
2022-07-29T00:04:37.779Z,49.14
2022-07-29T00:07:05.527Z,49.28
2022-07-29T00:09:33.715Z,49.00
2022-07-29T00:12:17.490Z,48.92
2022-07-29T00:14:52.277Z,49.05
2022-07-29T00:17:19.078Z,49.54
2022-07-29T00:19:45.782Z,49.67
2022-07-29T00:22:12.339Z,49.79
2022-07-29T00:24:38.847Z,49.91
2022-07-29T00:27:05.360Z,50.16
2022-07-29T00:29:34.169Z,50.17
2022-07-29T00:32:01.455Z,50.15
2022-07-29T00:34:46.424Z,50.60
2022-07-29T00:39:39.301Z,50.54
2022-07-29T00:42:06.293Z,50.60
2022-07-29T00:44:37.966Z,50.61
2022-07-29T00:47:04.662Z,50.70
2022-07-29T00:49:31.234Z,51.44
2022-07-29T00:51:58.482Z,51.75
2022-07-29T00:54:25.075Z,51.20
2022-07-29T00:56:51.680Z,51.77
2022-07-29T00:59:18.233Z,51.63
2022-07-29T01:01:44.848Z,51.55
2022-07-29T01:04:11.455Z,51.85
2022-07-29T01:06:38.315Z,51.89
2022-07-29T01:09:05.221Z,52.25
2022-07-29T01:11:31.822Z,51.97
2022-07-29T01:13:58.361Z,51.16
2022-07-29T01:16:41.557Z,51.75
2022-07-29T01:19:32.697Z,50.83
2022-07-29T01:22:08.357Z,51.03
2022-07-29T01:24:50.952Z,51.35
2022-07-29T01:27:32.535Z,51.40
2022-07-29T01:30:00.549Z,49.99
2022-07-29T01:32:29.925Z,52.19
2022-07-29T01:35:18.110Z,51.68
2022-07-29T01:37:49.483Z,52.97
2022-07-29T01:40:31.954Z,52.37
2022-07-29T01:43:04.338Z,53.41
2022-07-29T01:45:42.402Z,53.94
2022-07-29T01:48:25.239Z,53.52
2022-07-29T01:50:57.684Z,54.28
2022-07-29T01:53:37.769Z,54.02
2022-07-29T01:56:07.760Z,54.70
2022-07-29T01:58:37.625Z,54.51
2022-07-29T02:01:05.876Z,54.08
2022-07-29T02:03:35.662Z,54.32
2022-07-29T02:06:04.215Z,54.01
2022-07-29T02:08:33.620Z,54.62
2022-07-29T02:11:02.442Z,54.71
2022-07-29T02:13:30.858Z,54.31
2022-07-29T02:15:59.103Z,54.95
2022-07-29T02:18:29.219Z,54.34
2022-07-29T02:20:59.518Z,54.45
2022-07-29T02:23:27.188Z,54.55
2022-07-29T02:25:58.584Z,55.48
2022-07-29T02:28:28.484Z,54.71
2022-07-29T02:30:58.861Z,55.54
2022-07-29T02:33:26.576Z,55.34
2022-07-29T02:35:53.716Z,55.39
2022-07-29T02:38:41.811Z,56.05
2022-07-29T02:41:17.462Z,55.69
2022-07-29T02:43:47.855Z,56.19
2022-07-29T02:46:28.913Z,56.19
2022-07-29T02:49:14.207Z,56.09
2022-07-29T02:51:55.136Z,55.94
2022-07-29T02:54:40.337Z,56.26
2022-07-29T02:57:16.325Z,56.89
2022-07-29T02:59:46.364Z,56.51
2022-07-29T03:02:16.391Z,57.02
2022-07-29T03:04:44.939Z,57.28
2022-07-29T03:07:16.447Z,57.39
2022-07-29T03:09:43.719Z,57.18
2022-07-29T03:12:11.545Z,57.40
2022-07-29T03:14:39.045Z,57.91
2022-07-29T03:17:06.327Z,58.01
2022-07-29T03:19:33.020Z,58.23
2022-07-29T03:22:00.642Z,58.07
2022-07-29T03:24:34.660Z,58.08
2022-07-29T03:27:01.941Z,58.54
2022-07-29T03:29:33.484Z,58.34
2022-07-29T03:32:07.910Z,58.19
2022-07-29T03:34:36.660Z,58.75
2022-07-29T03:37:03.308Z,58.56
2022-07-29T03:39:33.972Z,58.76
2022-07-29T03:42:02.073Z,58.91
2022-07-29T03:44:30.146Z,58.99
2022-07-29T03:46:59.555Z,59.10
2022-07-29T03:49:27.546Z,59.44
2022-07-29T03:51:54.646Z,59.66
2022-07-29T03:54:21.649Z,60.26
2022-07-29T03:56:51.168Z,60.04
2022-07-29T03:59:20.369Z,60.09
2022-07-29T04:01:47.782Z,61.44
2022-07-29T04:04:14.702Z,61.30
2022-07-29T04:06:43.052Z,61.96
2022-07-29T04:09:10.707Z,61.53
2022-07-29T04:12:01.557Z,61.59
2022-07-29T04:14:26.191Z,61.73
2022-07-29T04:16:53.830Z,62.13
2022-07-29T04:19:20.388Z,62.41
2022-07-29T04:21:46.908Z,62.50
2022-07-29T04:24:14.082Z,62.89
2022-07-29T04:26:40.925Z,63.24
2022-07-29T04:29:07.464Z,63.39
2022-07-29T04:31:34.009Z,63.31
2022-07-29T04:34:00.555Z,63.78
2022-07-29T04:36:29.365Z,63.87
2022-07-29T04:38:56.773Z,64.85
2022-07-29T04:41:23.344Z,64.50
2022-07-29T04:43:55.252Z,64.45
2022-07-29T04:46:24.230Z,64.87
2022-07-29T04:48:50.892Z,64.76
2022-07-29T04:51:17.651Z,64.64
2022-07-29T04:53:44.196Z,65.13
2022-07-29T04:56:10.721Z,65.24
2022-07-29T04:58:37.569Z,65.01
2022-07-29T05:01:04.861Z,65.46
2022-07-29T05:03:31.460Z,65.64
2022-07-29T05:05:57.989Z,64.76
2022-07-29T05:08:24.621Z,65.48
2022-07-29T05:10:51.200Z,65.93
2022-07-29T05:13:17.720Z,66.30
2022-07-29T05:15:44.304Z,65.40
2022-07-29T05:18:10.877Z,65.97
2022-07-29T05:20:37.993Z,66.15
2022-07-29T05:23:04.770Z,65.96
2022-07-29T05:25:43.808Z,66.58
2022-07-29T05:28:11.857Z,66.48
2022-07-29T05:30:38.523Z,66.39
2022-07-29T05:33:05.080Z,66.58
2022-07-29T05:35:31.611Z,66.58
2022-07-29T05:37:58.147Z,66.54
2022-07-29T05:40:24.701Z,66.61
2022-07-29T05:42:51.261Z,66.91
2022-07-29T05:45:17.802Z,66.74
2022-07-29T05:47:44.396Z,66.54
2022-07-29T05:50:10.923Z,67.63
2022-07-29T05:52:37.454Z,67.02
2022-07-29T05:55:06.339Z,67.27
2022-07-29T05:57:33.141Z,66.89
2022-07-29T05:59:59.695Z,67.33
2022-07-29T06:02:26.198Z,67.21
2022-07-29T06:04:52.879Z,66.72
2022-07-29T06:07:19.513Z,67.31
2022-07-29T06:09:46.072Z,67.64
2022-07-29T06:12:12.619Z,67.31
2022-07-29T06:14:39.205Z,67.20
2022-07-29T06:17:06.584Z,66.76
2022-07-29T06:19:35.443Z,66.94
2022-07-29T06:22:01.996Z,66.37
2022-07-29T06:24:28.617Z,66.89
2022-07-29T06:26:55.287Z,66.55
2022-07-29T06:29:21.807Z,66.85
2022-07-29T06:31:48.333Z,67.46
2022-07-29T06:34:15.125Z,66.95
2022-07-29T06:36:41.880Z,67.69
2022-07-29T06:39:08.852Z,66.98
2022-07-29T06:41:35.578Z,67.30
2022-07-29T06:44:09.746Z,66.86
2022-07-29T06:46:36.309Z,66.97
2022-07-29T06:49:03.455Z,67.32
2022-07-29T06:51:30.175Z,66.94
2022-07-29T06:54:02.295Z,66.54
2022-07-29T06:56:39.407Z,67.03
2022-07-29T06:59:08.828Z,67.00
2022-07-29T07:01:37.618Z,66.48
2022-07-29T07:04:04.244Z,66.27
2022-07-29T07:06:30.765Z,66.83
2022-07-29T07:08:57.381Z,65.92
2022-07-29T07:11:24.091Z,65.74
2022-07-29T07:13:50.708Z,66.29
2022-07-29T07:16:17.512Z,66.16
2022-07-29T07:18:46.030Z,66.45
2022-07-29T07:21:13.224Z,66.22
2022-07-29T07:23:46.248Z,66.85
2022-07-29T07:26:12.794Z,66.55
2022-07-29T07:28:39.288Z,66.44
2022-07-29T07:31:06.107Z,67.04
2022-07-29T07:33:32.622Z,66.89
2022-07-29T07:35:59.389Z,66.50
2022-07-29T07:38:25.957Z,66.17
2022-07-29T07:40:52.660Z,66.12
2022-07-29T07:43:19.257Z,66.50
2022-07-29T07:45:45.794Z,66.77
2022-07-29T07:48:12.422Z,66.18
2022-07-29T07:50:39.007Z,66.02
2022-07-29T07:53:05.882Z,65.90
2022-07-29T07:55:53.204Z,66.33
2022-07-29T07:58:19.206Z,66.24
2022-07-29T08:00:45.769Z,66.42
2022-07-29T08:03:17.122Z,66.16
2022-07-29T08:05:43.885Z,64.94
2022-07-29T08:08:10.398Z,65.81
2022-07-29T08:10:56.715Z,66.05
2022-07-29T08:13:29.200Z,65.06
2022-07-29T08:15:59.175Z,65.18
2022-07-29T08:18:29.509Z,65.14
2022-07-29T08:20:56.691Z,65.21
2022-07-29T08:23:24.033Z,65.58
2022-07-29T08:25:51.985Z,65.06
2022-07-29T08:28:18.490Z,64.99
2022-07-29T08:30:45.029Z,64.44
2022-07-29T08:33:11.565Z,64.50
2022-07-29T08:35:40.061Z,64.68
2022-07-29T08:38:06.743Z,64.64
2022-07-29T08:40:33.430Z,64.49
2022-07-29T08:43:06.569Z,64.38
2022-07-29T08:45:47.299Z,64.08
2022-07-29T08:48:15.088Z,64.68
2022-07-29T08:50:43.701Z,64.09
2022-07-29T08:53:14.073Z,63.58
2022-07-29T08:55:44.146Z,62.44
2022-07-29T08:58:11.120Z,63.58
2022-07-29T09:00:44.139Z,62.76
2022-07-29T09:03:15.704Z,63.79
2022-07-29T09:05:47.751Z,62.63
2022-07-29T09:08:15.699Z,61.96
2022-07-29T09:10:42.758Z,61.96
2022-07-29T09:13:09.291Z,62.43
2022-07-29T09:15:35.897Z,61.55
2022-07-29T09:18:03.149Z,60.00
2022-07-29T09:21:08.468Z,60.66
2022-07-29T09:23:34.977Z,59.86
2022-07-29T09:26:06.784Z,58.88
2022-07-29T09:28:33.354Z,59.16
2022-07-29T09:31:00.233Z,58.95
2022-07-29T09:33:35.382Z,58.65
2022-07-29T09:36:10.033Z,58.65
2022-07-29T09:38:40.076Z,56.58
2022-07-29T09:41:07.158Z,57.87
2022-07-29T09:43:34.509Z,57.15
2022-07-29T09:46:14.740Z,57.75
2022-07-29T09:48:41.407Z,56.76
2022-07-29T09:51:24.165Z,56.50
2022-07-29T09:53:53.615Z,57.42
2022-07-29T09:56:20.230Z,57.04
2022-07-29T09:58:46.751Z,56.36
2022-07-29T10:01:13.341Z,54.84
2022-07-29T10:03:55.497Z,56.46
2022-07-29T10:06:22.069Z,56.29
2022-07-29T10:08:48.972Z,56.26
2022-07-29T10:11:19.948Z,54.17
2022-07-29T10:13:49.003Z,52.90
2022-07-29T10:16:17.195Z,54.00
2022-07-29T10:18:44.916Z,54.48
2022-07-29T10:21:35.317Z,53.42
2022-07-29T10:24:01.554Z,54.40
2022-07-29T10:26:29.929Z,53.87
2022-07-29T10:28:56.650Z,54.48
2022-07-29T10:31:37.449Z,53.01
2022-07-29T10:34:48.783Z,53.89
2022-07-29T10:37:45.849Z,53.42
2022-07-29T10:41:19.611Z,52.45
2022-07-29T10:43:51.392Z,51.39
2022-07-29T10:46:19.489Z,52.02
2022-07-29T10:49:31.369Z,51.83
2022-07-29T10:52:07.840Z,52.92
2022-07-29T10:54:37.247Z,50.99
2022-07-29T10:57:40.512Z,51.12
2022-07-29T11:00:09.887Z,51.86
2022-07-29T11:02:44.565Z,51.56
2022-07-29T11:05:21.899Z,50.52
2022-07-29T11:08:25.296Z,50.91
2022-07-29T11:11:15.788Z,51.04
2022-07-29T11:13:55.987Z,50.02
2022-07-29T11:16:25.172Z,49.93
2022-07-29T11:19:13.920Z,50.64
2022-07-29T11:21:51.697Z,48.96
2022-07-29T11:24:28.878Z,49.94
2022-07-29T11:27:14.848Z,49.54
2022-07-29T11:30:03.226Z,49.12
2022-07-29T11:32:39.186Z,49.46
2022-07-29T11:35:22.287Z,47.77
2022-07-29T11:38:23.201Z,47.05
2022-07-29T11:41:21.386Z,46.68
2022-07-29T11:43:50.637Z,46.31
2022-07-29T11:46:38.678Z,46.99
2022-07-29T11:49:09.690Z,46.31
2022-07-29T11:51:48.256Z,45.86
2022-07-29T11:54:27.623Z,46.80
2022-07-29T11:56:55.843Z,45.74
2022-07-29T11:59:22.757Z,46.76
2022-07-29T12:02:18.353Z,44.78
2022-07-29T12:04:55.590Z,43.75
2022-07-29T12:07:34.968Z,44.85
2022-07-29T12:10:03.239Z,44.76
2022-07-29T12:12:29.955Z,43.45
2022-07-29T12:14:56.584Z,43.02
2022-07-29T12:17:33.727Z,42.33
2022-07-29T12:20:04.198Z,44.18
2022-07-29T12:22:38.078Z,42.82
2022-07-29T12:25:32.643Z,42.57
2022-07-29T12:28:02.759Z,41.47
2022-07-29T12:30:39.878Z,42.37
2022-07-29T12:33:20.746Z,42.38
2022-07-29T12:36:06.126Z,42.79
2022-07-29T12:38:35.818Z,41.29
2022-07-29T12:41:04.428Z,41.11
2022-07-29T12:43:31.812Z,42.63
2022-07-29T12:45:58.791Z,41.48
2022-07-29T12:48:40.566Z,42.22
2022-07-29T12:51:09.629Z,39.52
2022-07-29T12:53:37.159Z,39.76
2022-07-29T12:56:15.517Z,41.25
2022-07-29T12:58:52.606Z,40.83
2022-07-29T13:01:20.980Z,40.42
2022-07-29T13:04:01.099Z,40.49
2022-07-29T13:06:39.245Z,41.43
2022-07-29T13:09:09.465Z,41.12
2022-07-29T13:11:45.259Z,41.43
2022-07-29T13:14:30.556Z,41.99
2022-07-29T13:17:10.577Z,41.46
2022-07-29T13:19:42.717Z,41.26
2022-07-29T13:22:13.933Z,41.08
2022-07-29T13:24:52.676Z,42.13
2022-07-29T13:27:27.715Z,38.66
2022-07-29T13:29:57.445Z,39.69
2022-07-29T13:32:28.614Z,38.73
2022-07-29T13:35:01.613Z,40.98
2022-07-29T13:37:33.773Z,39.31
2022-07-29T13:40:00.816Z,38.72
2022-07-29T13:42:27.735Z,37.08
2022-07-29T13:44:54.644Z,37.47
2022-07-29T13:47:22.529Z,36.74
2022-07-29T13:49:59.502Z,35.90
2022-07-29T13:52:25.991Z,36.00
2022-07-29T13:54:52.520Z,36.71
2022-07-29T13:57:20.252Z,35.68
2022-07-29T13:59:49.479Z,35.57
2022-07-29T14:02:20.056Z,36.01
2022-07-29T14:04:46.736Z,36.06
2022-07-29T14:07:16.211Z,36.79
2022-07-29T14:09:43.401Z,35.51
2022-07-29T14:12:10.231Z,35.08
2022-07-29T14:14:37.520Z,34.78
2022-07-29T14:17:07.268Z,35.58
2022-07-29T14:19:36.550Z,35.11
2022-07-29T14:22:04.544Z,35.53
2022-07-29T14:24:32.148Z,36.58
2022-07-29T14:26:58.981Z,37.62
2022-07-29T14:29:25.691Z,37.53
2022-07-29T14:32:08.643Z,36.22
2022-07-29T14:34:36.549Z,37.96
2022-07-29T14:37:05.991Z,37.62
2022-07-29T14:39:33.339Z,35.14
2022-07-29T14:42:00.329Z,35.85
2022-07-29T14:44:31.852Z,36.58
2022-07-29T14:47:00.368Z,34.90
2022-07-29T14:49:27.951Z,34.75
2022-07-29T14:51:54.737Z,34.20
2022-07-29T14:54:21.324Z,33.70
2022-07-29T14:56:50.257Z,34.13
2022-07-29T14:59:19.861Z,34.67
2022-07-29T15:01:46.900Z,34.51
2022-07-29T15:04:14.351Z,35.08
2022-07-29T15:06:41.004Z,35.49
2022-07-29T15:09:07.679Z,34.67
2022-07-29T15:11:38.500Z,35.00
2022-07-29T15:14:06.577Z,34.77
2022-07-29T15:16:33.494Z,33.91
2022-07-29T15:19:01.049Z,33.54
2022-07-29T15:21:27.906Z,34.29
2022-07-29T15:23:54.457Z,34.42
2022-07-29T15:26:21.028Z,34.82
2022-07-29T15:28:48.000Z,33.99
2022-07-29T15:31:14.619Z,33.07
2022-07-29T15:33:41.522Z,32.90
2022-07-29T15:36:08.160Z,33.19
2022-07-29T15:38:34.700Z,32.68
2022-07-29T15:41:01.230Z,33.14
2022-07-29T15:43:28.016Z,33.57
2022-07-29T15:46:13.136Z,32.75
2022-07-29T15:48:40.310Z,33.65
2022-07-29T15:51:06.888Z,33.04
2022-07-29T15:53:33.817Z,33.34
2022-07-29T15:56:02.069Z,32.42
2022-07-29T15:58:28.588Z,32.25
2022-07-29T16:00:55.141Z,32.66
2022-07-29T16:03:22.801Z,32.03
2022-07-29T16:05:49.365Z,32.07
2022-07-29T16:08:15.890Z,32.66
2022-07-29T16:10:42.475Z,30.89
2022-07-29T16:13:09.091Z,30.73
2022-07-29T16:15:35.715Z,30.76
2022-07-29T16:18:02.259Z,30.33
2022-07-29T16:20:30.136Z,30.25
2022-07-29T16:22:56.655Z,31.47
2022-07-29T16:25:38.342Z,30.70
2022-07-29T16:28:10.342Z,30.96
2022-07-29T16:30:37.156Z,31.25
2022-07-29T16:33:08.089Z,29.24
2022-07-29T16:35:39.473Z,29.25
2022-07-29T16:38:09.031Z,29.66
2022-07-29T16:40:35.522Z,29.06
2022-07-29T16:43:04.313Z,29.08
2022-07-29T16:45:45.461Z,29.67
2022-07-29T16:48:14.328Z,29.17
2022-07-29T16:50:41.577Z,29.25
2022-07-29T16:53:10.277Z,29.54
2022-07-29T16:55:36.806Z,29.69
2022-07-29T16:58:03.370Z,28.93
2022-07-29T17:00:32.500Z,29.99
2022-07-29T17:03:05.399Z,29.36
2022-07-29T17:05:50.744Z,29.62
2022-07-29T17:08:18.726Z,30.43
2022-07-29T17:10:45.399Z,30.35
2022-07-29T17:13:11.972Z,30.27
2022-07-29T17:15:38.522Z,30.67
2022-07-29T17:18:12.555Z,30.77
2022-07-29T17:20:41.439Z,31.26
2022-07-29T17:23:08.014Z,31.35
2022-07-29T17:25:34.646Z,32.02
2022-07-29T17:28:01.509Z,32.20
2022-07-29T17:30:28.814Z,31.55
2022-07-29T17:32:55.655Z,31.75
2022-07-29T17:35:41.183Z,32.53
2022-07-29T17:38:07.819Z,31.20
2022-07-29T17:40:34.346Z,32.48
2022-07-29T17:43:00.834Z,31.57
2022-07-29T17:45:49.882Z,32.08
2022-07-29T17:48:14.141Z,32.38
2022-07-29T17:50:40.712Z,31.76
2022-07-29T17:53:09.616Z,31.96
2022-07-29T17:55:44.933Z,32.80
2022-07-29T17:58:13.722Z,32.75
2022-07-29T18:00:40.600Z,33.02
2022-07-29T18:03:07.298Z,33.24
2022-07-29T18:05:33.901Z,32.15
2022-07-29T18:08:00.980Z,33.45
2022-07-29T18:10:27.572Z,33.10
2022-07-29T18:12:54.087Z,33.82
2022-07-29T18:15:20.630Z,33.94
2022-07-29T18:17:57.318Z,34.54
2022-07-29T18:20:28.064Z,34.41
2022-07-29T18:22:54.604Z,34.54
2022-07-29T18:25:21.245Z,34.37
2022-07-29T18:27:47.773Z,34.26
2022-07-29T18:30:17.196Z,34.75
2022-07-29T18:32:59.166Z,34.61
2022-07-29T18:35:30.623Z,35.08
2022-07-29T18:38:02.142Z,34.62
2022-07-29T18:40:30.485Z,35.61
2022-07-29T18:42:57.230Z,35.49
2022-07-29T18:45:29.153Z,35.59
2022-07-29T18:47:56.544Z,36.41
2022-07-29T18:50:28.952Z,36.13
2022-07-29T18:53:03.174Z,36.43
2022-07-29T18:55:29.738Z,36.35
2022-07-29T18:57:58.453Z,36.49
2022-07-29T19:00:26.267Z,36.03
2022-07-29T19:02:53.349Z,36.04
2022-07-29T19:05:20.104Z,36.65
2022-07-29T19:07:46.716Z,36.28
2022-07-29T19:10:13.576Z,36.27
2022-07-29T19:12:40.152Z,35.75
2022-07-29T19:15:08.021Z,36.69
2022-07-29T19:17:34.619Z,36.84
2022-07-29T19:20:01.360Z,37.61
2022-07-29T19:22:28.038Z,37.73
2022-07-29T19:24:54.619Z,37.50
2022-07-29T19:27:21.183Z,37.80
2022-07-29T19:29:47.712Z,37.80
2022-07-29T19:32:14.583Z,37.71
2022-07-29T19:35:10.344Z,38.13
2022-07-29T19:37:39.865Z,37.70
2022-07-29T19:40:12.190Z,38.18
2022-07-29T19:42:38.933Z,37.96
2022-07-29T19:45:06.161Z,38.50
2022-07-29T19:47:32.688Z,38.57
2022-07-29T19:50:00.596Z,39.10
2022-07-29T19:52:27.616Z,39.12
2022-07-29T19:54:54.244Z,38.83
2022-07-29T19:57:20.750Z,39.18
2022-07-29T19:59:47.266Z,39.85
2022-07-29T20:02:13.882Z,39.64
2022-07-29T20:04:42.085Z,40.29
2022-07-29T20:07:08.641Z,40.13
2022-07-29T20:09:35.166Z,40.74
2022-07-29T20:12:01.750Z,40.42
2022-07-29T20:14:28.304Z,40.61
2022-07-29T20:16:54.806Z,41.05
2022-07-29T20:19:21.435Z,40.85
2022-07-29T20:21:51.383Z,41.81
2022-07-29T20:24:19.304Z,41.73
2022-07-29T20:26:46.112Z,41.54
2022-07-29T20:29:12.753Z,41.07
2022-07-29T20:31:39.299Z,41.29
2022-07-29T20:34:06.079Z,40.96
2022-07-29T20:36:32.612Z,41.63
2022-07-29T20:38:59.921Z,41.04
2022-07-29T20:41:26.922Z,41.51
2022-07-29T20:43:53.440Z,42.24
2022-07-29T20:46:19.977Z,42.15
2022-07-29T20:48:47.160Z,42.93
2022-07-29T20:51:14.128Z,42.49
2022-07-29T20:53:40.882Z,42.79
2022-07-29T20:56:07.782Z,43.51
2022-07-29T20:58:36.072Z,44.65
2022-07-29T21:01:03.241Z,45.36
2022-07-29T21:03:29.901Z,45.32
2022-07-29T21:05:56.495Z,46.38
2022-07-29T21:08:23.216Z,45.43
2022-07-29T21:10:49.928Z,44.69
2022-07-29T21:13:17.002Z,45.03
2022-07-29T21:15:46.319Z,45.60
2022-07-29T21:18:30.755Z,46.65
2022-07-29T21:21:08.899Z,46.97
2022-07-29T21:23:36.082Z,46.40
2022-07-29T21:26:03.031Z,47.32
2022-07-29T21:28:35.591Z,47.11
2022-07-29T21:31:04.969Z,48.85
2022-07-29T21:33:34.469Z,48.73
2022-07-29T21:38:49.388Z,47.84
2022-07-29T21:41:15.974Z,48.73
2022-07-29T21:43:42.507Z,47.35
2022-07-29T21:46:09.436Z,47.27
2022-07-29T21:48:36.168Z,48.61
2022-07-29T21:51:02.674Z,48.17
2022-07-29T21:53:29.185Z,48.41
2022-07-29T21:55:57.319Z,50.20
2022-07-29T21:58:24.611Z,49.48
2022-07-29T22:00:51.367Z,48.56
2022-07-29T22:03:17.977Z,49.98
2022-07-29T22:05:44.612Z,50.20
2022-07-29T22:08:13.365Z,49.33
2022-07-29T22:10:39.937Z,50.09
2022-07-29T22:13:06.584Z,52.05
2022-07-29T22:15:33.198Z,51.25
2022-07-29T22:17:59.961Z,50.95
2022-07-29T22:20:26.948Z,51.21
2022-07-29T22:22:53.981Z,52.30
2022-07-29T22:25:21.051Z,51.60
2022-07-29T22:27:47.612Z,51.59
2022-07-29T22:30:14.549Z,52.03
2022-07-29T22:32:41.295Z,52.18
2022-07-29T22:35:08.352Z,53.11
2022-07-29T22:37:34.981Z,53.59
2022-07-29T22:40:01.820Z,53.15
2022-07-29T22:42:28.429Z,53.19
2022-07-29T22:44:54.935Z,54.04
2022-07-29T22:47:45.738Z,53.26
2022-07-29T22:50:08.285Z,54.57
2022-07-29T22:52:34.810Z,55.20
2022-07-29T22:55:01.481Z,54.63
2022-07-29T22:57:28.327Z,55.26
2022-07-29T22:59:54.820Z,55.39
2022-07-29T23:02:21.326Z,55.69
2022-07-29T23:04:47.826Z,55.85
2022-07-29T23:07:14.350Z,56.35
2022-07-29T23:09:40.891Z,56.47
2022-07-29T23:12:07.792Z,56.84
2022-07-29T23:14:34.310Z,57.29
2022-07-29T23:17:01.063Z,58.05
2022-07-29T23:19:27.860Z,58.34
2022-07-29T23:21:54.353Z,58.12
2022-07-29T23:24:20.865Z,57.88
2022-07-29T23:26:47.385Z,58.07
2022-07-29T23:29:13.915Z,58.27
2022-07-29T23:31:42.650Z,58.74
2022-07-29T23:34:14.793Z,58.65
2022-07-29T23:36:42.307Z,59.90
2022-07-29T23:39:11.263Z,59.55
2022-07-29T23:41:37.837Z,59.68
2022-07-29T23:44:04.614Z,59.94
2022-07-29T23:46:31.196Z,60.30
2022-07-29T23:48:57.848Z,60.47
2022-07-29T23:51:24.975Z,60.45
2022-07-29T23:53:53.811Z,60.87
2022-07-29T23:56:20.951Z,60.72
2022-07-29T23:58:47.526Z,60.87
